Time;durP1;ratioP1;P1;durP2;ratioP2;P2;SDS_P1;SDS_P2;PMS_P1;PMS_P2;Temp;Humidity;BMP_temperature;BMP_pressure;BME280_temperature;BME280_humidity;BME280_pressure;Samples;Min_cycle;Max_cycle;Signal;HPM_P1;HPM_P2
2021/12/11 00:00:14;;;;;;;54.15;19.63;;;;;;;;;;5113802;28;20406;-72
2021/12/11 00:02:43;;;;;;;55.67;19.13;;;;;;;;;;5095541;28;20402;-73
2021/12/11 00:05:11;;;;;;;57.10;19.27;;;;;;;;;;5113460;28;20048;-72
2021/12/11 00:07:37;;;;;;;57.25;19.83;;;;;;;;;;5113418;28;20047;-73
2021/12/11 00:10:13;;;;;;;50.55;18.33;;;;;;;;;;5095408;28;20493;-73
2021/12/11 00:12:47;;;;;;;57.03;19.13;;;;;;;;;;5095356;28;20387;-74
2021/12/11 00:15:23;;;;;;;56.33;18.30;;;;;;;;;;5095476;28;20032;-73
2021/12/11 00:17:55;;;;;;;58.75;18.60;;;;;;;;;;5113890;28;20444;-74
2021/12/11 00:20:25;;;;;;;50.08;16.75;;;;;;;;;;5095371;28;20114;-74
2021/12/11 00:22:52;;;;;;;53.25;17.33;;;;;;;;;;5114087;28;20521;-75
2021/12/11 00:25:18;;;;;;;47.50;15.95;;;;;;;;;;5113907;28;20137;-74
2021/12/11 00:27:46;;;;;;;52.25;17.08;;;;;;;;;;5095829;28;20087;-74
2021/12/11 00:30:19;;;;;;;42.50;14.05;;;;;;;;;;5095288;28;20122;-74
2021/12/11 00:32:45;;;;;;;;;;;;;;;;;;5095586;28;20116;-74
2021/12/11 00:35:14;;;;;;;44.25;13.63;;;;;;;;;;5114070;28;19930;-74
2021/12/11 00:37:40;;;;;;;43.60;15.05;;;;;;;;;;5098704;28;20024;-74
2021/12/11 00:40:10;;;;;;;47.13;16.33;;;;;;;;;;5117817;28;20456;-74
2021/12/11 00:42:36;;;;;;;47.90;15.43;;;;;;;;;;5098940;28;20024;-74
2021/12/11 00:45:13;;;;;;;53.85;16.33;;;;;;;;;;5117559;28;20418;-73
2021/12/11 00:48:05;;;;;;;50.60;18.08;;;;;;;;;;5117293;28;20064;-74
2021/12/11 00:50:36;;;;;;;49.20;15.65;;;;;;;;;;5112702;28;20063;-74
2021/12/11 00:53:07;;;;;;;49.10;16.13;;;;;;;;;;5117014;28;20024;-74
2021/12/11 00:55:39;;;;;;;46.38;16.83;;;;;;;;;;5098396;28;20024;-75
2021/12/11 00:58:19;;;;;;;47.03;15.73;;;;;;;;;;5098674;28;20072;-72
2021/12/11 01:00:45;;;;;;;50.40;16.63;;;;;;;;;;5117246;28;20422;-73
2021/12/11 01:03:14;;;;;;;54.25;17.00;;;;;;;;;;5098632;28;20024;-72
2021/12/11 01:05:41;;;;;;;48.30;16.95;;;;;;;;;;5098582;28;20027;-72
2021/12/11 01:08:20;;;;;;;59.55;17.85;;;;;;;;;;5116524;28;20054;-74
2021/12/11 01:10:47;;;;;;;49.22;16.55;;;;;;;;;;5098314;28;20081;-73
2021/12/11 01:13:18;;;;;;;64.22;18.73;;;;;;;;;;5116664;28;20445;-73
2021/12/11 01:15:47;;;;;;;53.63;17.20;;;;;;;;;;5098469;28;20016;-73
2021/12/11 01:23:55;;;;;;;59.67;16.85;;;;;;;;;;5117449;28;20067;-73
2021/12/11 01:26:21;;;;;;;53.22;18.10;;;;;;;;;;5116284;28;20481;-75
2021/12/11 01:28:48;;;;;;;50.72;17.30;;;;;;;;;;5116491;28;20067;-73
2021/12/11 01:31:16;;;;;;;51.38;17.65;;;;;;;;;;5116357;28;20023;-72
2021/12/11 01:33:42;;;;;;;52.78;18.98;;;;;;;;;;5116279;28;20090;-74
2021/12/11 01:36:10;;;;;;;56.10;17.55;;;;;;;;;;5115938;28;20457;-73
2021/12/11 01:38:38;;;;;;;58.70;17.40;;;;;;;;;;5116488;28;20132;-72
2021/12/11 01:41:06;;;;;;;59.58;18.02;;;;;;;;;;5097924;28;20060;-75
2021/12/11 01:43:33;;;;;;;63.33;18.35;;;;;;;;;;5116096;28;20046;-73
2021/12/11 01:46:00;;;;;;;54.60;18.15;;;;;;;;;;5097859;28;20047;-72
2021/12/11 01:48:31;;;;;;;60.90;18.05;;;;;;;;;;5116001;28;20031;-72
2021/12/11 01:51:00;;;;;;;64.75;19.10;;;;;;;;;;5097803;28;20144;-74
2021/12/11 01:53:31;;;;;;;61.92;18.95;;;;;;;;;;5115862;28;20157;-74
2021/12/11 01:56:00;;;;;;;48.45;16.30;;;;;;;;;;5097800;28;20019;-72
2021/12/11 01:58:36;;;;;;;58.30;18.83;;;;;;;;;;5097653;28;20020;-72
2021/12/11 02:01:06;;;;;;;49.17;16.08;;;;;;;;;;5098273;28;20093;-74
2021/12/11 02:03:33;;;;;;;45.20;14.15;;;;;;;;;;5097535;28;20023;-73
2021/12/11 02:06:00;;;;;;;54.83;17.88;;;;;;;;;;5116257;28;20032;-73
2021/12/11 02:08:30;;;;;;;51.97;17.30;;;;;;;;;;5097266;28;20063;-72
2021/12/11 02:11:01;;;;;;;43.75;14.00;;;;;;;;;;5116133;28;20028;-74
2021/12/11 02:13:43;;;;;;;39.53;14.32;;;;;;;;;;5097169;28;20475;-72
2021/12/11 02:16:38;;;;;;;44.58;14.57;;;;;;;;;;5097233;28;20419;-73
2021/12/11 02:19:09;;;;;;;40.42;14.10;;;;;;;;;;5112992;28;20042;-74
2021/12/11 02:21:37;;;;;;;39.60;14.20;;;;;;;;;;5097119;28;20031;-72
2021/12/11 02:24:05;;;;;;;45.25;15.63;;;;;;;;;;5097080;28;20036;-73
2021/12/11 02:26:33;;;;;;;45.35;17.63;;;;;;;;;;5097063;28;20047;-73
2021/12/11 02:29:19;;;;;;;41.22;15.00;;;;;;;;;;5096993;28;20523;-73
2021/12/11 02:31:51;;;;;;;40.45;15.68;;;;;;;;;;5115611;28;20034;-72
2021/12/11 02:34:21;;;;;;;43.25;14.23;;;;;;;;;;5096834;28;20028;-72
2021/12/11 02:36:50;;;;;;;50.17;17.88;;;;;;;;;;5115096;28;20031;-72
2021/12/11 02:39:24;;;;;;;56.22;17.90;;;;;;;;;;5114991;28;20034;-72
2021/12/11 02:41:50;;;;;;;;;;;;;;;;;;5097207;28;20411;-74
2021/12/11 02:44:35;;;;;;;44.97;14.32;;;;;;;;;;5114919;28;20283;-74
2021/12/11 02:47:07;;;;;;;48.72;16.33;;;;;;;;;;5115280;28;20061;-73
2021/12/11 02:49:57;;;;;;;52.97;15.27;;;;;;;;;;5115492;28;20039;-74
2021/12/11 02:52:44;;;;;;;47.20;17.08;;;;;;;;;;5067536;28;20273;-72
2021/12/11 02:55:32;;;;;;;45.78;16.27;;;;;;;;;;5115345;28;20031;-73
2021/12/11 02:58:03;;;;;;;52.30;16.35;;;;;;;;;;5096507;28;20031;-74
2021/12/11 03:00:42;;;;;;;61.92;20.33;;;;;;;;;;5096803;28;20020;-73
2021/12/11 03:03:12;;;;;;;49.67;16.63;;;;;;;;;;5114919;28;20051;-74
2021/12/11 03:05:45;;;;;;;54.38;19.70;;;;;;;;;;5096112;28;20019;-73
2021/12/11 03:08:11;;;;;;;;;;;;;;;;;;5093130;28;20135;-73
2021/12/11 03:10:38;;;;;;;50.65;15.65;;;;;;;;;;5094108;28;20356;-72
2021/12/11 03:13:05;;;;;;;51.78;16.25;;;;;;;;;;5092565;28;20077;-74
2021/12/11 03:15:32;;;;;;;49.42;16.65;;;;;;;;;;5092633;28;20024;-73
2021/12/11 03:17:58;;;;;;;48.28;16.55;;;;;;;;;;5093973;28;20024;-73
2021/12/11 03:20:25;;;;;;;49.33;16.88;;;;;;;;;;5092720;28;20020;-72
2021/12/11 03:22:51;;;;;;;48.90;15.98;;;;;;;;;;5094061;28;20028;-74
2021/12/11 03:25:19;;;;;;;45.28;15.50;;;;;;;;;;5092489;28;20118;-73
2021/12/11 03:27:47;;;;;;;57.03;19.13;;;;;;;;;;5092546;28;20036;-73
2021/12/11 03:30:16;;;;;;;58.35;21.70;;;;;;;;;;5094112;28;20052;-72
2021/12/11 03:32:43;;;;;;;67.43;21.63;;;;;;;;;;5092385;28;20031;-72
2021/12/11 03:35:10;;;;;;;58.00;20.92;;;;;;;;;;5092425;28;20035;-74
2021/12/11 03:37:37;;;;;;;59.33;19.88;;;;;;;;;;5093763;28;20039;-74
2021/12/11 03:40:04;;;;;;;58.42;20.38;;;;;;;;;;5093982;28;20032;-73
2021/12/11 03:42:31;;;;;;;56.45;17.55;;;;;;;;;;5093671;28;20016;-73
2021/12/11 03:45:00;;;;;;;47.63;17.05;;;;;;;;;;5093674;28;20058;-72
2021/12/11 03:47:30;;;;;;;51.00;18.92;;;;;;;;;;5092380;28;20017;-73
2021/12/11 03:49:57;;;;;;;70.07;23.55;;;;;;;;;;5092419;28;20416;-71
2021/12/11 03:52:23;;;;;;;64.97;23.05;;;;;;;;;;5093655;28;20020;-72
2021/12/11 03:54:51;;;;;;;49.00;17.77;;;;;;;;;;5092212;28;20077;-73
2021/12/11 03:57:18;;;;;;;51.05;17.75;;;;;;;;;;5092252;28;20019;-72
2021/12/11 03:59:47;;;;;;;59.20;20.70;;;;;;;;;;5093530;28;20437;-72
2021/12/11 04:02:14;;;;;;;52.28;17.15;;;;;;;;;;5092255;28;20016;-73
2021/12/11 04:04:46;;;;;;;53.63;19.23;;;;;;;;;;5093771;28;20097;-72
2021/12/11 04:07:14;;;;;;;51.35;18.38;;;;;;;;;;5096630;28;20056;-74
2021/12/11 04:09:40;;;;;;;52.55;17.10;;;;;;;;;;5095415;28;20038;-74
2021/12/11 04:12:08;;;;;;;58.67;21.02;;;;;;;;;;5097987;28;20361;-71
2021/12/11 04:14:38;;;;;;;54.13;20.05;;;;;;;;;;5118261;28;20034;-72
2021/12/11 04:17:04;;;;;;;55.47;19.92;;;;;;;;;;5099532;28;20027;-72
2021/12/11 04:19:32;;;;;;;57.40;18.75;;;;;;;;;;5118399;28;20039;-72
2021/12/11 04:21:58;;;;;;;56.90;20.60;;;;;;;;;;5099423;28;20019;-73
2021/12/11 04:24:26;;;;;;;58.85;21.38;;;;;;;;;;5099460;28;20445;-74
2021/12/11 04:26:54;;;;;;;59.42;20.30;;;;;;;;;;5117632;28;20024;-71
2021/12/11 04:29:21;;;;;;;57.97;19.42;;;;;;;;;;5117588;28;20148;-74
2021/12/11 04:31:47;;;;;;;50.85;17.35;;;;;;;;;;5117603;28;20024;-73
2021/12/11 04:34:15;;;;;;;49.55;18.83;;;;;;;;;;5117370;28;20106;-74
2021/12/11 04:36:43;;;;;;;60.50;21.42;;;;;;;;;;5118076;28;20058;-72
2021/12/11 04:39:12;;;;;;;65.22;20.90;;;;;;;;;;5098997;28;20062;-75
2021/12/11 04:41:48;;;;;;;68.03;22.00;;;;;;;;;;5098929;28;20024;-72
2021/12/11 04:44:16;;;;;;;47.78;18.63;;;;;;;;;;5099021;28;20023;-73
2021/12/11 04:46:43;;;;;;;47.00;16.45;;;;;;;;;;5098718;28;20024;-74
2021/12/11 04:51:45;;;;;;;58.63;20.38;;;;;;;;;;5117119;28;20055;-73
2021/12/11 05:02:09;;;;;;;50.97;17.85;;;;;;;;;;5117088;28;20031;-72
2021/12/11 05:09:53;;;;;;;53.42;20.33;;;;;;;;;;5115608;28;20032;-72
2021/12/11 05:12:32;;;;;;;49.50;17.58;;;;;;;;;;5097358;28;20024;-72
2021/12/11 05:14:58;;;;;;;51.55;17.85;;;;;;;;;;5115828;28;20341;-72
2021/12/11 05:17:25;;;;;;;55.80;20.10;;;;;;;;;;5097248;28;20184;-73
2021/12/11 05:19:51;;;;;;;54.15;19.13;;;;;;;;;;5097183;28;20038;-72
2021/12/11 05:22:18;;;;;;;49.55;17.25;;;;;;;;;;5096758;28;20429;-72
2021/12/11 05:24:49;;;;;;;56.40;16.48;;;;;;;;;;5115359;28;20020;-72
2021/12/11 05:27:15;;;;;;;52.78;16.13;;;;;;;;;;5097043;28;20513;-72
2021/12/11 05:29:42;;;;;;;56.33;19.05;;;;;;;;;;5097087;28;20031;-73
2021/12/11 05:32:11;;;;;;;49.33;16.00;;;;;;;;;;5115231;28;20031;-72
2021/12/11 05:34:37;;;;;;;52.40;17.83;;;;;;;;;;5115205;28;20035;-72
2021/12/11 05:37:04;;;;;;;60.50;19.45;;;;;;;;;;5115168;28;20476;-72
2021/12/11 05:39:30;;;;;;;58.63;18.65;;;;;;;;;;5115404;28;20027;-72
2021/12/11 05:41:56;;;;;;;52.47;18.85;;;;;;;;;;5095976;28;20049;-72
2021/12/11 05:44:23;;;;;;;50.97;17.40;;;;;;;;;;5096725;28;20027;-73
2021/12/11 05:46:50;;;;;;;55.95;18.70;;;;;;;;;;5096703;28;20380;-71
2021/12/11 05:49:16;;;;;;;49.42;16.73;;;;;;;;;;5096619;28;20395;-72
2021/12/11 05:51:44;;;;;;;52.85;15.50;;;;;;;;;;5096679;28;20476;-72
2021/12/11 05:54:12;;;;;;;56.50;18.20;;;;;;;;;;5096537;28;20031;-71
2021/12/11 05:56:40;;;;;;;59.92;19.02;;;;;;;;;;5096549;28;20028;-74
2021/12/11 05:59:08;;;;;;;57.78;18.42;;;;;;;;;;5114864;28;20111;-72
2021/12/11 06:01:39;;;;;;;63.42;18.70;;;;;;;;;;5114995;28;20033;-71
2021/12/11 06:04:07;;;;;;;65.20;19.92;;;;;;;;;;5114401;28;20107;-73
2021/12/11 06:06:34;;;;;;;78.25;20.95;;;;;;;;;;5114572;28;20055;-72
2021/12/11 06:09:00;;;;;;;73.80;21.25;;;;;;;;;;5053225;28;1767118;-72
2021/12/11 06:11:26;;;;;;;67.47;18.33;;;;;;;;;;5097353;28;20396;-72
2021/12/11 06:13:52;;;;;;;62.05;18.88;;;;;;;;;;5114565;28;20477;-73
2021/12/11 06:16:19;;;;;;;80.25;22.35;;;;;;;;;;5097057;28;20460;-72
2021/12/11 06:18:46;;;;;;;302.00;136.80;;;;;;;;;;5097210;28;20055;-72
2021/12/11 06:21:12;;;;;;;78.05;23.92;;;;;;;;;;5115040;28;20361;-73
2021/12/11 06:23:38;;;;;;;73.38;22.88;;;;;;;;;;5096904;28;20114;-73
2021/12/11 06:26:05;;;;;;;66.25;18.35;;;;;;;;;;5096939;28;20020;-72
2021/12/11 06:28:32;;;;;;;84.45;26.33;;;;;;;;;;5115281;28;20046;-73
2021/12/11 06:30:59;;;;;;;70.70;17.45;;;;;;;;;;5115155;28;20028;-73
2021/12/11 06:33:28;;;;;;;79.68;18.10;;;;;;;;;;5096072;28;20058;-73
2021/12/11 06:36:08;;;;;;;98.68;19.88;;;;;;;;;;5096869;28;20115;-73
2021/12/11 06:38:36;;;;;;;91.07;20.63;;;;;;;;;;5096860;28;20028;-73
2021/12/11 06:41:03;;;;;;;132.73;22.63;;;;;;;;;;5115070;28;20058;-73
2021/12/11 06:43:30;;;;;;;70.50;17.75;;;;;;;;;;5096725;28;20023;-73
2021/12/11 06:45:56;;;;;;;83.40;20.63;;;;;;;;;;5114923;28;20020;-73
2021/12/11 06:48:22;;;;;;;74.75;18.45;;;;;;;;;;5114834;28;20069;-72
2021/12/11 06:50:49;;;;;;;85.97;22.00;;;;;;;;;;5114857;28;20030;-72
2021/12/11 06:53:19;;;;;;;80.90;20.17;;;;;;;;;;5096479;28;20499;-73
2021/12/11 06:55:46;;;;;;;90.53;20.92;;;;;;;;;;5114997;28;20391;-73
2021/12/11 06:58:12;;;;;;;82.43;25.63;;;;;;;;;;5114704;28;20030;-73
2021/12/11 07:00:39;;;;;;;77.15;20.60;;;;;;;;;;5114879;28;20023;-73
2021/12/11 07:03:05;;;;;;;73.63;21.65;;;;;;;;;;5096375;28;20463;-71
2021/12/11 07:05:33;;;;;;;76.10;20.10;;;;;;;;;;5114501;28;20488;-73
2021/12/11 07:08:00;;;;;;;68.35;21.33;;;;;;;;;;5096082;28;20568;-73
2021/12/11 07:10:26;;;;;;;69.25;19.73;;;;;;;;;;5096183;28;20392;-72
2021/12/11 07:12:52;;;;;;;68.50;18.63;;;;;;;;;;5114366;28;20020;-73
2021/12/11 07:15:19;;;;;;;67.95;19.55;;;;;;;;;;5115122;28;20028;-72
2021/12/11 07:17:45;;;;;;;67.57;18.35;;;;;;;;;;5114240;28;20031;-73
2021/12/11 07:20:13;;;;;;;61.03;19.33;;;;;;;;;;5096084;28;20031;-73
2021/12/11 07:22:41;;;;;;;53.70;18.63;;;;;;;;;;5095997;28;20383;-74
2021/12/11 07:25:15;;;;;;;67.18;20.23;;;;;;;;;;5114180;28;20027;-72
2021/12/11 07:27:42;;;;;;;79.05;19.20;;;;;;;;;;5114235;28;20015;-73
2021/12/11 07:30:09;;;;;;;64.95;19.33;;;;;;;;;;5114045;28;20028;-73
2021/12/11 07:32:35;;;;;;;75.25;21.23;;;;;;;;;;5114243;28;20360;-73
2021/12/11 07:35:02;;;;;;;71.32;20.67;;;;;;;;;;5114514;28;20028;-73
2021/12/11 07:37:28;;;;;;;63.35;20.65;;;;;;;;;;5114603;28;20027;-73
2021/12/11 07:39:54;;;;;;;62.60;19.80;;;;;;;;;;5095797;28;20030;-72
2021/12/11 07:42:20;;;;;;;59.17;19.25;;;;;;;;;;5113891;28;20028;-72
2021/12/11 07:44:47;;;;;;;55.60;19.42;;;;;;;;;;5095676;28;20077;-72
2021/12/11 07:47:13;;;;;;;66.25;20.60;;;;;;;;;;5113897;28;20039;-71
2021/12/11 07:49:39;;;;;;;69.63;20.45;;;;;;;;;;5095649;28;20023;-73
2021/12/11 07:52:06;;;;;;;70.03;20.15;;;;;;;;;;5095680;28;20032;-72
2021/12/11 07:54:32;;;;;;;64.50;20.33;;;;;;;;;;5095515;28;20032;-71
2021/12/11 07:56:59;;;;;;;70.95;21.65;;;;;;;;;;5113756;28;20474;-73
2021/12/11 07:59:25;;;;;;;78.05;22.23;;;;;;;;;;5095536;28;20028;-73
2021/12/11 08:01:53;;;;;;;66.95;21.02;;;;;;;;;;5095515;28;20023;-73
2021/12/11 08:04:19;;;;;;;68.32;20.88;;;;;;;;;;5113808;28;20038;-72
2021/12/11 08:06:46;;;;;;;62.00;20.63;;;;;;;;;;5095458;28;20023;-72
2021/12/11 08:09:15;;;;;;;60.88;20.58;;;;;;;;;;5113586;28;20381;-75
2021/12/11 08:11:42;;;;;;;59.10;21.02;;;;;;;;;;5113672;28;20055;-74
2021/12/11 08:14:09;;;;;;;57.35;20.13;;;;;;;;;;5114161;28;20071;-74
2021/12/11 08:16:44;;;;;;;59.38;19.50;;;;;;;;;;5113641;28;20024;-74
2021/12/11 08:19:13;;;;;;;65.45;22.38;;;;;;;;;;5095436;28;20023;-73
2021/12/11 08:21:39;;;;;;;59.78;19.35;;;;;;;;;;5113863;28;20366;-74
2021/12/11 08:24:07;;;;;;;66.40;21.27;;;;;;;;;;5095347;28;20028;-75
2021/12/11 08:26:34;;;;;;;59.40;21.20;;;;;;;;;;5113557;28;20028;-74
2021/12/11 08:29:01;;;;;;;58.65;21.45;;;;;;;;;;5113530;28;20028;-74
2021/12/11 08:31:27;;;;;;;58.35;21.23;;;;;;;;;;5113447;28;20472;-74
2021/12/11 08:33:54;;;;;;;58.90;19.52;;;;;;;;;;5113327;28;20038;-74
2021/12/11 08:36:21;;;;;;;55.50;20.20;;;;;;;;;;5113954;28;20022;-73
2021/12/11 08:38:47;;;;;;;53.38;18.98;;;;;;;;;;5095144;28;20027;-74
2021/12/11 08:41:15;;;;;;;63.25;22.60;;;;;;;;;;5113985;28;20028;-74
2021/12/11 08:43:43;;;;;;;60.72;22.20;;;;;;;;;;5095203;28;20537;-75
2021/12/11 08:46:12;;;;;;;62.05;22.15;;;;;;;;;;5113286;28;20035;-75
2021/12/11 08:48:40;;;;;;;67.35;24.02;;;;;;;;;;5095071;28;20027;-75
2021/12/11 08:51:10;;;;;;;57.97;21.23;;;;;;;;;;5113349;28;20030;-75
2021/12/11 08:53:37;;;;;;;56.28;19.65;;;;;;;;;;5094890;28;20039;-73
2021/12/11 08:56:04;;;;;;;50.15;19.20;;;;;;;;;;5113541;28;20024;-73
2021/12/11 08:58:30;;;;;;;58.20;20.80;;;;;;;;;;5116394;28;20028;-73
2021/12/11 09:00:57;;;;;;;56.03;20.00;;;;;;;;;;5117120;28;20027;-72
2021/12/11 09:03:29;;;;;;;58.28;19.40;;;;;;;;;;5116988;28;20103;-75
2021/12/11 09:05:58;;;;;;;59.33;21.10;;;;;;;;;;5116794;28;20027;-73
2021/12/11 09:08:27;;;;;;;54.88;19.35;;;;;;;;;;5098412;28;20078;-75
2021/12/11 09:10:58;;;;;;;49.10;18.27;;;;;;;;;;5098516;28;20027;-76
2021/12/11 09:13:53;;;;;;;57.47;19.10;;;;;;;;;;5098570;28;20379;-75
2021/12/11 09:16:25;;;;;;;54.85;18.45;;;;;;;;;;5114157;28;20040;-74
2021/12/11 09:19:10;;;;;;;49.30;18.58;;;;;;;;;;5098303;28;20384;-71
2021/12/11 09:21:40;;;;;;;47.40;17.00;;;;;;;;;;5116667;28;20111;-73
2021/12/11 09:24:13;;;;;;;41.78;16.85;;;;;;;;;;5098587;28;20020;-74
2021/12/11 09:26:44;;;;;;;50.55;18.60;;;;;;;;;;5098301;28;20384;-72
2021/12/11 09:29:40;;;;;;;46.35;15.75;;;;;;;;;;5117147;28;20023;-73
2021/12/11 09:32:06;;;;;;;51.67;17.92;;;;;;;;;;5010438;28;20034;-72
2021/12/11 09:34:37;;;;;;;38.75;14.45;;;;;;;;;;5098083;28;20396;-73
2021/12/11 09:37:04;;;;;;;43.28;14.35;;;;;;;;;;5116894;28;20016;-72
2021/12/11 09:39:57;;;;;;;44.15;15.75;;;;;;;;;;5098050;28;20031;-72
2021/12/11 09:42:23;;;;;;;41.58;15.45;;;;;;;;;;5111773;28;20122;-72
2021/12/11 09:44:55;;;;;;;41.17;15.35;;;;;;;;;;5116155;28;20055;-72
2021/12/11 09:47:23;;;;;;;37.95;14.55;;;;;;;;;;5097833;28;20030;-73
2021/12/11 09:49:58;;;;;;;39.88;15.15;;;;;;;;;;5097795;28;20020;-73
2021/12/11 09:52:25;;;;;;;44.55;15.10;;;;;;;;;;5097738;28;20483;-73
2021/12/11 09:54:57;;;;;;;40.35;14.98;;;;;;;;;;5097662;28;20507;-73
2021/12/11 09:57:25;;;;;;;45.05;15.63;;;;;;;;;;5097560;28;20426;-74
2021/12/11 09:59:52;;;;;;;41.97;14.25;;;;;;;;;;5097551;28;20031;-74
2021/12/11 10:02:23;;;;;;;39.25;15.02;;;;;;;;;;5115823;28;20023;-73
2021/12/11 10:04:56;;;;;;;35.53;13.88;;;;;;;;;;5097630;28;20027;-74
2021/12/11 10:09:53;;;;;;;36.55;13.35;;;;;;;;;;5114552;28;20023;-75
2021/12/11 10:12:22;;;;;;;29.58;11.23;;;;;;;;;;5115671;28;20110;-75
2021/12/11 10:14:48;;;;;;;27.50;9.40;;;;;;;;;;5115498;28;20115;-75
2021/12/11 10:17:22;;;;;;;34.70;12.77;;;;;;;;;;5115543;28;20028;-72
2021/12/11 10:19:50;;;;;;;33.53;12.57;;;;;;;;;;5097247;28;20073;-73
2021/12/11 10:22:20;;;;;;;37.13;13.30;;;;;;;;;;5115475;28;20049;-75
2021/12/11 10:24:46;;;;;;;41.05;13.98;;;;;;;;;;5096978;28;20062;-72
2021/12/11 10:27:14;;;;;;;39.05;13.68;;;;;;;;;;5115407;28;20028;-72
2021/12/11 10:29:41;;;;;;;34.30;12.90;;;;;;;;;;5097044;28;20191;-72
2021/12/11 10:32:11;;;;;;;40.42;13.70;;;;;;;;;;5115209;28;20031;-72
2021/12/11 10:34:37;;;;;;;39.45;13.77;;;;;;;;;;5115061;28;20502;-72
2021/12/11 10:37:07;;;;;;;37.20;13.98;;;;;;;;;;5096893;28;20019;-72
2021/12/11 10:39:34;;;;;;;40.63;14.40;;;;;;;;;;5096869;28;20039;-73
2021/12/11 10:42:00;;;;;;;36.50;11.32;;;;;;;;;;5096736;28;20388;-73
2021/12/11 10:44:29;;;;;;;29.83;11.70;;;;;;;;;;5096759;28;20020;-72
2021/12/11 10:47:27;;;;;;;32.10;11.40;;;;;;;;;;5096666;28;20616;-74
2021/12/11 10:49:54;;;;;;;33.67;13.70;;;;;;;;;;5042510;28;20042;-75
2021/12/11 10:52:22;;;;;;;34.67;13.90;;;;;;;;;;5115369;28;20024;-74
2021/12/11 10:54:49;;;;;;;35.58;14.75;;;;;;;;;;5096523;28;20032;-74
2021/12/11 10:57:17;;;;;;;37.67;14.65;;;;;;;;;;5096504;28;20503;-74
2021/12/11 10:59:44;;;;;;;39.63;14.07;;;;;;;;;;5096445;28;20083;-74
2021/12/11 11:02:10;;;;;;;31.83;10.95;;;;;;;;;;5096980;28;20028;-76
2021/12/11 11:04:44;;;;;;;33.00;11.30;;;;;;;;;;5114525;28;20367;-75
2021/12/11 11:07:11;;;;;;;33.70;14.15;;;;;;;;;;5096134;28;20047;-73
2021/12/11 11:09:38;;;;;;;34.60;13.02;;;;;;;;;;5115155;28;20063;-76
2021/12/11 11:12:07;;;;;;;35.05;13.35;;;;;;;;;;5114512;28;20030;-75
2021/12/11 11:14:33;;;;;;;37.20;12.32;;;;;;;;;;5096151;28;20044;-75
2021/12/11 11:17:02;;;;;;;33.83;13.77;;;;;;;;;;5114418;28;20076;-75
2021/12/11 11:19:30;;;;;;;36.17;14.18;;;;;;;;;;5095789;28;20035;-75
2021/12/11 11:21:59;;;;;;;35.25;14.63;;;;;;;;;;5096073;28;20028;-75
2021/12/11 11:24:30;;;;;;;31.85;12.60;;;;;;;;;;5096055;28;20028;-74
2021/12/11 11:26:56;;;;;;;35.08;10.05;;;;;;;;;;5095922;28;20030;-74
2021/12/11 11:29:24;;;;;;;32.78;10.70;;;;;;;;;;5095979;28;20020;-73
2021/12/11 11:31:53;;;;;;;29.58;10.95;;;;;;;;;;5096093;28;20035;-75
2021/12/11 11:34:20;;;;;;;38.88;13.50;;;;;;;;;;5095832;28;20039;-76
2021/12/11 11:36:48;;;;;;;33.03;10.93;;;;;;;;;;5095873;28;20480;-76
2021/12/11 11:39:16;;;;;;;31.15;10.43;;;;;;;;;;5095836;28;20046;-75
2021/12/11 11:42:03;;;;;;;32.40;12.13;;;;;;;;;;5113771;28;20027;-74
2021/12/11 11:44:30;;;;;;;35.22;11.77;;;;;;;;;;5095641;28;20387;-75
2021/12/11 11:46:58;;;;;;;32.08;12.27;;;;;;;;;;5095703;28;20384;-73
2021/12/11 11:49:25;;;;;;;34.55;13.95;;;;;;;;;;5095595;28;20027;-75
2021/12/11 11:51:53;;;;;;;34.95;13.30;;;;;;;;;;5114495;28;20041;-75
2021/12/11 11:54:21;;;;;;;26.55;10.77;;;;;;;;;;5113784;28;20035;-73
2021/12/11 11:56:50;;;;;;;33.22;10.90;;;;;;;;;;5113801;28;20094;-75
2021/12/11 11:59:16;;;;;;;26.52;9.52;;;;;;;;;;5095464;28;20080;-74
2021/12/11 12:01:53;;;;;;;31.73;11.15;;;;;;;;;;5095402;28;20020;-74
2021/12/11 12:04:20;;;;;;;25.30;9.15;;;;;;;;;;5114327;28;20367;-73
2021/12/11 12:06:54;;;;;;;25.17;9.55;;;;;;;;;;5113988;28;20387;-76
2021/12/11 12:09:21;;;;;;;23.10;8.63;;;;;;;;;;5075352;28;20123;-76
2021/12/11 12:11:48;;;;;;;18.50;7.28;;;;;;;;;;5093288;28;20024;-76
2021/12/11 12:14:18;;;;;;;18.33;7.28;;;;;;;;;;5093196;28;20111;-75
2021/12/11 12:16:47;;;;;;;16.40;6.38;;;;;;;;;;5093238;28;20016;-74
2021/12/11 12:19:14;;;;;;;14.30;6.10;;;;;;;;;;5075185;28;20028;-74
2021/12/11 12:21:42;;;;;;;12.15;4.85;;;;;;;;;;5093144;28;20024;-73
2021/12/11 12:24:10;;;;;;;14.77;5.65;;;;;;;;;;5075988;28;20028;-73
2021/12/11 12:26:37;;;;;;;15.80;5.07;;;;;;;;;;5075071;28;20032;-74
2021/12/11 12:29:05;;;;;;;12.77;5.10;;;;;;;;;;5093164;28;20077;-74
2021/12/11 12:31:33;;;;;;;10.00;4.55;;;;;;;;;;5075113;28;20028;-73
2021/12/11 12:34:00;;;;;;;13.13;4.05;;;;;;;;;;5078792;28;20040;-73
2021/12/11 12:36:27;;;;;;;13.18;4.57;;;;;;;;;;5097309;28;20442;-75
2021/12/11 12:38:54;;;;;;;11.25;4.93;;;;;;;;;;5078970;28;20043;-74
2021/12/11 12:41:26;;;;;;;13.48;6.35;;;;;;;;;;5097597;28;20510;-74
2021/12/11 12:46:44;;;;;;;14.95;6.78;;;;;;;;;;5096923;28;20031;-73
2021/12/11 12:49:11;;;;;;;16.40;6.45;;;;;;;;;;5078716;28;20024;-75
2021/12/11 12:51:38;;;;;;;12.52;6.03;;;;;;;;;;5078651;28;20031;-72
2021/12/11 12:54:06;;;;;;;12.10;5.68;;;;;;;;;;5096724;28;20036;-74
2021/12/11 12:56:37;;;;;;;16.65;6.75;;;;;;;;;;5079388;28;20125;-75
2021/12/11 12:59:06;;;;;;;16.98;8.27;;;;;;;;;;5078471;28;20035;-73
2021/12/11 13:01:39;;;;;;;18.33;8.80;;;;;;;;;;5097133;28;20098;-72
2021/12/11 13:04:07;;;;;;;16.17;7.80;;;;;;;;;;5078389;28;20032;-72
2021/12/11 13:06:35;;;;;;;17.98;8.02;;;;;;;;;;5078264;28;20086;-73
2021/12/11 13:09:08;;;;;;;18.33;8.65;;;;;;;;;;5096229;28;20108;-71
2021/12/11 13:11:34;;;;;;;;;;;;;;;;;;5117496;28;20098;-72
2021/12/11 13:14:00;;;;;;;20.27;10.00;;;;;;;;;;5116728;28;20010;-71
2021/12/11 13:16:29;;;;;;;22.15;10.73;;;;;;;;;;5098476;28;20028;-73
2021/12/11 13:18:59;;;;;;;21.30;9.75;;;;;;;;;;5098485;28;20460;-72
2021/12/11 13:21:31;;;;;;;19.85;9.75;;;;;;;;;;5098401;28;20039;-73
2021/12/11 13:24:01;;;;;;;21.85;10.30;;;;;;;;;;5098362;28;20023;-75
2021/12/11 13:26:28;;;;;;;19.13;9.18;;;;;;;;;;5117135;28;20058;-72
2021/12/11 13:28:57;;;;;;;18.38;9.20;;;;;;;;;;5098200;28;20053;-74
2021/12/11 13:31:28;;;;;;;20.10;9.70;;;;;;;;;;5116971;28;20368;-73
2021/12/11 13:33:54;;;;;;;19.73;10.30;;;;;;;;;;5098051;28;20034;-72
2021/12/11 13:36:21;;;;;;;21.70;10.70;;;;;;;;;;5097863;28;20383;-73
2021/12/11 13:38:48;;;;;;;22.75;10.93;;;;;;;;;;5116351;28;20023;-73
2021/12/11 13:41:35;;;;;;;25.45;11.38;;;;;;;;;;5116009;28;20520;-73
2021/12/11 13:44:01;;;;;;;23.05;11.35;;;;;;;;;;5097734;28;20047;-71
2021/12/11 13:46:29;;;;;;;23.02;10.80;;;;;;;;;;5097964;28;20030;-76
2021/12/11 13:48:56;;;;;;;18.20;9.70;;;;;;;;;;5116703;28;20024;-74
2021/12/11 13:51:29;;;;;;;23.15;11.43;;;;;;;;;;5097771;28;20028;-72
2021/12/11 13:53:55;;;;;;;24.08;11.07;;;;;;;;;;5097301;28;20127;-73
2021/12/11 13:56:24;;;;;;;22.38;10.68;;;;;;;;;;5115239;28;20035;-73
2021/12/11 13:58:52;;;;;;;20.48;11.00;;;;;;;;;;5097542;28;20053;-73
2021/12/11 14:01:21;;;;;;;25.95;12.45;;;;;;;;;;5097412;28;20027;-73
2021/12/11 14:03:49;;;;;;;26.50;11.60;;;;;;;;;;5097363;28;20104;-73
2021/12/11 14:06:16;;;;;;;28.17;11.35;;;;;;;;;;5097404;28;20476;-73
2021/12/11 14:08:43;;;;;;;27.27;12.75;;;;;;;;;;5097313;28;20054;-73
2021/12/11 14:11:11;;;;;;;25.15;12.07;;;;;;;;;;5115932;28;20081;-73
2021/12/11 14:13:39;;;;;;;28.55;14.05;;;;;;;;;;5097239;28;20539;-73
2021/12/11 14:16:07;;;;;;;23.42;11.20;;;;;;;;;;5115914;28;20036;-73
2021/12/11 14:18:33;;;;;;;30.60;12.98;;;;;;;;;;5116118;28;20054;-73
2021/12/11 14:21:00;;;;;;;23.33;11.57;;;;;;;;;;5115564;28;20027;-74
2021/12/11 14:23:29;;;;;;;27.10;12.02;;;;;;;;;;5115362;28;20072;-72
2021/12/11 14:25:56;;;;;;;30.05;14.00;;;;;;;;;;5097549;28;20084;-73
2021/12/11 14:28:24;;;;;;;33.55;15.07;;;;;;;;;;5097063;28;20582;-74
2021/12/11 14:30:53;;;;;;;27.63;12.48;;;;;;;;;;5096963;28;20072;-73
2021/12/11 14:33:21;;;;;;;27.13;13.75;;;;;;;;;;5115246;28;20032;-73
2021/12/11 14:35:48;;;;;;;28.65;13.30;;;;;;;;;;5115230;28;20030;-72
2021/12/11 14:38:14;;;;;;;24.38;12.35;;;;;;;;;;5115187;28;20106;-72
2021/12/11 14:40:42;;;;;;;25.92;12.15;;;;;;;;;;5115729;28;20461;-74
2021/12/11 14:43:09;;;;;;;23.35;12.07;;;;;;;;;;5115027;28;20114;-74
2021/12/11 14:45:38;;;;;;;23.35;11.90;;;;;;;;;;5096723;28;20027;-75
2021/12/11 14:48:06;;;;;;;26.95;11.82;;;;;;;;;;5096677;28;20055;-74
2021/12/11 14:50:35;;;;;;;30.48;13.80;;;;;;;;;;5114834;28;20380;-74
2021/12/11 14:53:02;;;;;;;28.15;13.82;;;;;;;;;;5096418;28;20031;-73
2021/12/11 14:55:34;;;;;;;27.13;12.18;;;;;;;;;;5095985;28;20039;-72